createdAt,value
2022-09-25T00:02:00.905Z,16.40
2022-09-25T00:04:27.448Z,14.63
2022-09-25T00:06:53.853Z,15.33
2022-09-25T00:09:23.196Z,15.87
2022-09-25T00:11:49.756Z,14.73
2022-09-25T00:14:16.316Z,14.57
2022-09-25T00:16:42.894Z,14.00
2022-09-25T00:19:35.333Z,13.23
2022-09-25T00:22:01.765Z,12.63
2022-09-25T00:24:28.185Z,13.87
2022-09-25T00:26:54.621Z,12.40
2022-09-25T00:29:21.123Z,13.43
2022-09-25T00:31:47.534Z,11.93
2022-09-25T00:34:14.151Z,12.67
2022-09-25T00:36:40.808Z,11.63
2022-09-25T00:39:07.505Z,11.87
2022-09-25T00:41:34.360Z,11.63
2022-09-25T00:44:02.818Z,12.17
2022-09-25T00:46:42.863Z,12.10
2022-09-25T00:49:24.800Z,12.07
2022-09-25T00:52:03.191Z,12.43
2022-09-25T00:54:36.466Z,11.90
2022-09-25T00:57:08.735Z,11.27
2022-09-25T00:59:41.084Z,11.47
2022-09-25T01:02:13.990Z,12.80
2022-09-25T01:04:42.649Z,10.83
2022-09-25T01:07:10.543Z,10.00
2022-09-25T01:09:37.051Z,11.13
2022-09-25T01:12:04.223Z,9.30
2022-09-25T01:14:34.076Z,10.07
2022-09-25T01:17:16.332Z,9.50
2022-09-25T01:20:07.463Z,8.83
2022-09-25T01:22:55.281Z,8.03
2022-09-25T01:25:45.581Z,8.10
2022-09-25T01:28:18.164Z,7.90
2022-09-25T01:30:50.316Z,7.67
2022-09-25T01:33:23.956Z,6.73
2022-09-25T01:36:05.498Z,5.27
2022-09-25T01:38:38.513Z,6.93
2022-09-25T01:41:16.566Z,5.20
2022-09-25T01:44:02.524Z,5.13
2022-09-25T01:46:35.069Z,4.60
2022-09-25T01:49:22.312Z,4.00
2022-09-25T01:51:55.966Z,4.43
2022-09-25T01:54:30.372Z,3.70
2022-09-25T01:57:18.476Z,3.33
2022-09-25T01:59:57.947Z,3.60
2022-09-25T02:02:35.127Z,3.50
2022-09-25T02:05:12.337Z,3.37
2022-09-25T02:07:45.510Z,2.80
2022-09-25T02:10:17.625Z,3.27
2022-09-25T02:12:47.792Z,2.87
2022-09-25T02:15:20.033Z,2.90
2022-09-25T02:18:26.280Z,3.27
2022-09-25T02:21:12.396Z,2.73
2022-09-25T02:23:47.967Z,3.20
2022-09-25T02:26:34.636Z,2.73
2022-09-25T02:29:02.665Z,3.03
2022-09-25T02:31:38.881Z,3.77
2022-09-25T02:34:08.187Z,3.10
2022-09-25T02:36:37.108Z,2.90
2022-09-25T02:39:05.793Z,3.17
2022-09-25T02:41:49.572Z,3.70
2022-09-25T02:44:53.717Z,3.50
2022-09-25T02:47:39.108Z,3.70
2022-09-25T02:50:30.311Z,3.23
2022-09-25T02:53:18.798Z,3.57
2022-09-25T02:56:03.777Z,3.83
2022-09-25T02:58:36.926Z,4.00
2022-09-25T03:01:06.748Z,4.60
2022-09-25T03:03:34.593Z,4.60
2022-09-25T03:06:03.612Z,4.77
2022-09-25T03:08:39.482Z,4.60
2022-09-25T03:11:07.886Z,4.50
2022-09-25T03:13:35.147Z,3.93
2022-09-25T03:16:23.368Z,4.43
2022-09-25T03:18:49.817Z,4.13
2022-09-25T03:21:16.261Z,4.37
2022-09-25T03:23:42.721Z,4.37
2022-09-25T03:26:09.151Z,4.67
2022-09-25T03:28:35.791Z,4.30
2022-09-25T03:31:04.060Z,4.00
2022-09-25T03:33:34.782Z,4.33
2022-09-25T03:36:10.917Z,4.77
2022-09-25T03:38:38.939Z,3.80
2022-09-25T03:41:09.406Z,3.80
2022-09-25T03:43:37.654Z,3.87
2022-09-25T03:46:11.428Z,4.17
2022-09-25T03:48:38.962Z,3.80
2022-09-25T03:51:06.280Z,3.57
2022-09-25T03:53:33.711Z,3.70
2022-09-25T03:56:06.013Z,3.83
2022-09-25T03:58:32.670Z,3.63
2022-09-25T04:00:59.197Z,3.77
2022-09-25T04:03:29.584Z,3.73
2022-09-25T04:05:57.994Z,3.27
2022-09-25T04:08:27.057Z,3.10
2022-09-25T04:10:59.509Z,2.60
2022-09-25T04:13:29.843Z,3.70
2022-09-25T04:15:57.719Z,2.77
2022-09-25T04:18:25.396Z,3.07
2022-09-25T04:20:51.950Z,2.60
2022-09-25T04:23:18.496Z,3.03
2022-09-25T04:25:45.756Z,3.07
2022-09-25T04:28:12.314Z,3.17
2022-09-25T04:30:38.752Z,3.70
2022-09-25T04:33:23.822Z,3.50
2022-09-25T04:35:50.316Z,3.23
2022-09-25T04:38:17.084Z,3.00
2022-09-25T04:40:45.824Z,3.23
2022-09-25T04:43:12.390Z,4.07
2022-09-25T04:45:39.061Z,3.47
2022-09-25T04:48:05.677Z,3.80
2022-09-25T04:50:33.326Z,4.00
2022-09-25T04:53:00.893Z,3.90
2022-09-25T04:55:27.718Z,3.87
2022-09-25T04:57:59.539Z,3.30
2022-09-25T05:00:29.715Z,3.90
2022-09-25T05:02:56.687Z,3.80
2022-09-25T05:05:30.402Z,3.90
2022-09-25T05:08:01.528Z,4.47
2022-09-25T05:10:31.268Z,4.37
2022-09-25T05:12:59.560Z,3.60
2022-09-25T05:15:28.351Z,3.60
2022-09-25T05:18:00.985Z,3.10
2022-09-25T05:20:27.546Z,3.37
2022-09-25T05:22:56.410Z,3.87
2022-09-25T05:25:23.419Z,3.63
2022-09-25T05:27:50.689Z,3.80
2022-09-25T05:30:17.580Z,3.10
2022-09-25T05:32:49.368Z,3.40
2022-09-25T05:35:20.606Z,3.87
2022-09-25T05:37:47.607Z,3.50
2022-09-25T05:40:15.717Z,3.70
2022-09-25T05:42:46.791Z,3.67
2022-09-25T05:45:18.123Z,3.13
2022-09-25T05:47:44.997Z,3.43
2022-09-25T05:50:14.022Z,3.50
2022-09-25T05:52:40.768Z,3.83
2022-09-25T05:55:08.420Z,3.73
2022-09-25T05:57:35.927Z,4.63
2022-09-25T06:00:06.038Z,4.17
2022-09-25T06:02:32.504Z,4.33
2022-09-25T06:04:59.107Z,4.13
2022-09-25T06:07:25.519Z,3.50
2022-09-25T06:09:51.950Z,3.63
2022-09-25T06:12:18.538Z,4.50
2022-09-25T06:14:44.984Z,4.30
2022-09-25T06:17:12.553Z,3.77
2022-09-25T06:19:39.107Z,4.20
2022-09-25T06:22:05.731Z,3.50
2022-09-25T06:24:32.124Z,3.53
2022-09-25T06:26:58.549Z,3.63
2022-09-25T06:29:25.041Z,3.07
2022-09-25T06:31:52.222Z,3.30
2022-09-25T06:34:19.195Z,3.57
2022-09-25T06:36:45.710Z,3.10
2022-09-25T06:39:12.115Z,3.40
2022-09-25T06:41:38.972Z,3.90
2022-09-25T06:44:06.809Z,2.70
2022-09-25T06:46:33.333Z,3.63
2022-09-25T06:48:59.790Z,3.63
2022-09-25T06:51:32.345Z,3.03
2022-09-25T06:53:58.901Z,3.60
2022-09-25T06:56:25.696Z,3.30
2022-09-25T06:58:52.390Z,3.07
2022-09-25T07:01:19.087Z,3.30
2022-09-25T07:03:45.727Z,4.10
2022-09-25T07:06:18.045Z,2.50
2022-09-25T07:08:45.021Z,2.80
2022-09-25T07:11:20.231Z,3.63
2022-09-25T07:13:47.864Z,2.90
2022-09-25T07:16:17.086Z,3.30
2022-09-25T07:18:45.012Z,2.90
2022-09-25T07:21:14.175Z,3.10
2022-09-25T07:23:42.119Z,2.90
2022-09-25T07:26:18.062Z,2.80
2022-09-25T07:28:44.626Z,3.10
2022-09-25T07:31:19.849Z,4.83
2022-09-25T07:33:47.302Z,3.33
2022-09-25T07:36:15.039Z,6.00
2022-09-25T07:38:41.713Z,3.27
2022-09-25T07:41:13.425Z,2.93
2022-09-25T07:43:40.346Z,3.10
2022-09-25T07:46:07.098Z,2.50
2022-09-25T07:48:33.610Z,3.40
2022-09-25T07:51:01.679Z,2.70
2022-09-25T07:53:28.705Z,3.50
2022-09-25T07:56:06.595Z,2.80
2022-09-25T07:58:35.579Z,2.67
2022-09-25T08:01:04.705Z,2.60
2022-09-25T08:03:31.422Z,3.10
2022-09-25T08:06:10.468Z,3.20
2022-09-25T08:08:37.283Z,2.63
2022-09-25T08:11:08.887Z,2.20
2022-09-25T08:13:38.126Z,3.40
2022-09-25T08:16:06.100Z,2.50
2022-09-25T08:18:33.023Z,2.60
2022-09-25T08:21:03.739Z,2.40
2022-09-25T08:23:30.875Z,2.40
2022-09-25T08:25:57.782Z,2.40
2022-09-25T08:28:24.216Z,2.30
2022-09-25T08:30:51.008Z,2.40
2022-09-25T08:33:17.552Z,2.10
2022-09-25T08:35:44.266Z,3.87
2022-09-25T08:38:13.470Z,2.03
2022-09-25T08:40:56.256Z,2.40
2022-09-25T08:43:25.338Z,2.17
2022-09-25T08:46:12.179Z,2.40
2022-09-25T08:49:05.919Z,1.93
2022-09-25T08:51:44.238Z,7.00
2022-09-25T08:54:20.797Z,2.40
2022-09-25T08:56:54.619Z,2.40
2022-09-25T08:59:31.778Z,2.40
2022-09-25T09:02:11.290Z,2.30
2022-09-25T09:04:44.576Z,2.10
2022-09-25T09:07:27.202Z,2.67
2022-09-25T09:10:16.476Z,2.60
2022-09-25T09:12:47.097Z,1.80
2022-09-25T09:15:37.508Z,2.20
2022-09-25T09:18:24.865Z,2.50
2022-09-25T09:20:54.152Z,2.73
2022-09-25T09:23:23.414Z,2.07
2022-09-25T09:26:05.065Z,1.97
2022-09-25T09:29:01.809Z,2.00
2022-09-25T09:31:50.058Z,1.90
2022-09-25T09:34:52.972Z,1.73
2022-09-25T09:37:31.551Z,2.00
2022-09-25T09:40:15.406Z,2.57
2022-09-25T09:43:22.212Z,1.70
2022-09-25T09:45:58.941Z,1.93
2022-09-25T09:48:44.514Z,1.80
2022-09-25T09:51:22.215Z,2.50
2022-09-25T09:53:54.423Z,2.20
2022-09-25T09:56:35.755Z,1.70
2022-09-25T09:59:24.303Z,2.13
2022-09-25T10:02:01.169Z,1.90
2022-09-25T10:04:34.115Z,2.10
2022-09-25T10:07:08.461Z,1.70
2022-09-25T10:09:37.183Z,1.87
2022-09-25T10:12:15.480Z,1.83
2022-09-25T10:14:47.254Z,1.90
2022-09-25T10:17:15.630Z,1.50
2022-09-25T10:19:53.828Z,1.70
2022-09-25T10:22:23.963Z,1.93
2022-09-25T10:24:58.525Z,1.83
2022-09-25T10:27:31.433Z,1.93
2022-09-25T10:30:21.855Z,1.70
2022-09-25T10:32:57.294Z,2.00
2022-09-25T10:35:28.994Z,1.47
2022-09-25T10:37:58.297Z,1.57
2022-09-25T10:40:35.720Z,1.87
2022-09-25T10:43:15.006Z,1.53
2022-09-25T10:45:41.621Z,5.33
2022-09-25T10:48:54.441Z,1.87
2022-09-25T10:51:21.667Z,2.13
2022-09-25T10:54:15.351Z,1.80
2022-09-25T10:56:42.430Z,1.37
2022-09-25T10:59:21.072Z,1.60
2022-09-25T11:01:51.064Z,1.70
2022-09-25T11:04:22.185Z,2.30
2022-09-25T11:06:58.129Z,1.67
2022-09-25T11:09:29.945Z,1.60
2022-09-25T11:12:22.115Z,2.37
2022-09-25T11:14:57.988Z,1.30
2022-09-25T11:17:39.744Z,1.60
2022-09-25T11:20:16.403Z,2.07
2022-09-25T11:23:06.332Z,2.30
2022-09-25T11:25:46.745Z,1.43
2022-09-25T11:28:27.304Z,1.87
2022-09-25T11:31:03.003Z,1.87
2022-09-25T11:33:49.026Z,1.70
2022-09-25T11:36:33.232Z,1.50
2022-09-25T11:39:25.969Z,1.40
2022-09-25T11:42:21.310Z,1.70
2022-09-25T11:45:14.795Z,1.50
2022-09-25T11:47:47.735Z,1.57
2022-09-25T11:50:17.002Z,1.57
2022-09-25T11:53:29.517Z,1.60
2022-09-25T11:56:32.835Z,2.17
2022-09-25T11:59:22.890Z,1.60
2022-09-25T12:02:00.657Z,1.30
2022-09-25T12:04:46.549Z,1.40
2022-09-25T12:07:19.135Z,1.60
2022-09-25T12:10:06.830Z,1.30
2022-09-25T12:12:47.565Z,3.00
2022-09-25T12:15:40.006Z,1.30
2022-09-25T12:18:18.616Z,1.90
2022-09-25T12:20:55.663Z,2.07
2022-09-25T12:23:34.173Z,2.10
2022-09-25T12:26:23.942Z,1.60
2022-09-25T12:29:11.809Z,1.30
2022-09-25T12:31:58.201Z,1.60
2022-09-25T12:35:07.608Z,1.80
2022-09-25T12:37:46.840Z,1.17
2022-09-25T12:40:26.287Z,1.60
2022-09-25T12:43:03.162Z,2.97
2022-09-25T12:45:45.918Z,1.67
2022-09-25T12:48:31.837Z,2.03
2022-09-25T12:51:01.546Z,1.80
2022-09-25T12:53:31.943Z,2.23
2022-09-25T12:56:41.719Z,1.70
2022-09-25T12:59:29.008Z,2.07
2022-09-25T13:02:17.835Z,1.67
2022-09-25T13:04:53.765Z,1.83
2022-09-25T13:07:55.216Z,1.57
2022-09-25T13:10:38.035Z,1.77
2022-09-25T13:13:13.064Z,1.87
2022-09-25T13:15:42.957Z,1.67
2022-09-25T13:18:17.390Z,2.27
2022-09-25T13:20:53.380Z,1.90
2022-09-25T13:23:29.717Z,1.90
2022-09-25T13:26:00.933Z,4.00
2022-09-25T13:28:30.197Z,1.70
2022-09-25T13:31:09.110Z,1.90
2022-09-25T13:33:49.970Z,1.70
2022-09-25T13:36:50.382Z,2.00
2022-09-25T13:39:35.328Z,2.40
2022-09-25T13:42:33.297Z,1.80
2022-09-25T13:45:26.087Z,1.97
2022-09-25T13:48:07.106Z,1.70
2022-09-25T13:50:36.319Z,1.80
2022-09-25T13:53:25.584Z,1.90
2022-09-25T13:55:55.031Z,1.63
2022-09-25T13:58:26.512Z,1.97
2022-09-25T14:00:55.896Z,2.00
2022-09-25T14:03:37.847Z,2.10
2022-09-25T14:06:05.288Z,1.77
2022-09-25T14:08:33.787Z,3.80
2022-09-25T14:11:05.524Z,10.97
2022-09-25T14:13:33.388Z,2.13
2022-09-25T14:16:03.532Z,1.40
2022-09-25T14:18:44.831Z,1.60
2022-09-25T14:21:15.339Z,1.37
2022-09-25T14:23:49.296Z,1.73
2022-09-25T14:26:27.633Z,2.43
2022-09-25T14:28:58.047Z,2.00
2022-09-25T14:31:32.929Z,1.80
2022-09-25T14:34:21.235Z,2.00
2022-09-25T14:37:15.649Z,7.87
2022-09-25T14:40:00.842Z,5.00
2022-09-25T14:42:38.141Z,2.50
2022-09-25T14:45:25.715Z,1.67
2022-09-25T14:47:56.576Z,1.80
2022-09-25T14:50:26.880Z,1.33
2022-09-25T14:52:58.180Z,1.43
2022-09-25T14:55:33.747Z,1.40
2022-09-25T14:58:01.761Z,1.40
2022-09-25T15:00:29.274Z,1.60
2022-09-25T15:02:58.325Z,1.90
2022-09-25T15:05:31.615Z,1.60
2022-09-25T15:08:02.130Z,1.47
2022-09-25T15:10:36.409Z,1.70
2022-09-25T15:13:07.379Z,1.60
2022-09-25T15:15:35.204Z,1.53
2022-09-25T15:18:02.675Z,1.40
2022-09-25T15:20:32.739Z,2.20
2022-09-25T15:23:01.005Z,1.50
2022-09-25T15:25:31.583Z,1.67
2022-09-25T15:27:59.290Z,2.60
2022-09-25T15:30:28.166Z,2.40
2022-09-25T15:33:00.493Z,3.30
2022-09-25T15:35:28.569Z,1.60
2022-09-25T15:38:10.603Z,1.40
2022-09-25T15:40:37.809Z,1.80
2022-09-25T15:43:12.550Z,1.30
2022-09-25T15:45:43.429Z,2.30
2022-09-25T15:48:18.939Z,1.60
2022-09-25T15:50:45.531Z,1.60
2022-09-25T15:53:32.871Z,1.40
2022-09-25T15:56:15.541Z,1.53
2022-09-25T15:58:46.484Z,1.47
2022-09-25T16:01:35.231Z,1.30
2022-09-25T16:04:24.091Z,1.50
2022-09-25T16:06:51.095Z,1.50
2022-09-25T16:09:30.192Z,1.50
2022-09-25T16:12:20.942Z,1.33
2022-09-25T16:14:48.594Z,2.10
2022-09-25T16:17:22.126Z,1.50
2022-09-25T16:20:18.700Z,1.50
2022-09-25T16:22:53.614Z,3.10
2022-09-25T16:25:26.448Z,15.50
2022-09-25T16:28:00.235Z,3.80
2022-09-25T16:30:27.135Z,1.80
2022-09-25T16:32:56.326Z,1.80
2022-09-25T16:35:44.972Z,2.03
2022-09-25T16:38:31.233Z,1.50
2022-09-25T16:41:19.332Z,1.83
2022-09-25T16:43:46.573Z,1.70
2022-09-25T16:46:16.300Z,1.93
2022-09-25T16:48:45.079Z,1.43
2022-09-25T16:51:23.163Z,1.60
2022-09-25T16:53:50.677Z,1.73
2022-09-25T16:56:22.335Z,1.63
2022-09-25T16:58:49.711Z,1.60
2022-09-25T17:01:16.977Z,1.60
2022-09-25T17:03:49.958Z,1.30
2022-09-25T17:06:21.746Z,1.60
2022-09-25T17:08:48.943Z,1.70
2022-09-25T17:11:18.117Z,1.33
2022-09-25T17:13:45.347Z,2.00
2022-09-25T17:16:11.813Z,1.63
2022-09-25T17:18:38.318Z,1.97
2022-09-25T17:21:11.594Z,2.20
2022-09-25T17:23:38.247Z,1.50
2022-09-25T17:26:07.579Z,1.50
2022-09-25T17:28:34.014Z,1.40
2022-09-25T17:31:01.257Z,1.70
2022-09-25T17:33:28.270Z,1.53
2022-09-25T17:36:01.122Z,7.60
2022-09-25T17:38:27.603Z,2.60
2022-09-25T17:40:56.693Z,1.80
2022-09-25T17:43:25.023Z,1.70
2022-09-25T17:45:56.559Z,1.50
2022-09-25T17:48:28.540Z,1.40
2022-09-25T17:50:59.798Z,1.40
2022-09-25T17:53:29.519Z,1.50
2022-09-25T17:55:57.123Z,1.60
2022-09-25T17:58:24.855Z,1.23
2022-09-25T18:00:53.085Z,1.77
2022-09-25T18:03:21.028Z,1.73
2022-09-25T18:05:47.944Z,1.70
2022-09-25T18:08:15.258Z,1.60
2022-09-25T18:10:42.025Z,2.20
2022-09-25T18:13:13.870Z,2.53
2022-09-25T18:15:53.845Z,2.13
2022-09-25T18:18:20.821Z,2.70
2022-09-25T18:21:09.105Z,3.73
2022-09-25T18:23:37.930Z,2.80
2022-09-25T18:26:07.201Z,2.43
2022-09-25T18:28:33.895Z,3.33
2022-09-25T18:31:00.492Z,3.33
2022-09-25T18:33:27.064Z,2.90
2022-09-25T18:35:54.065Z,2.70
2022-09-25T18:38:21.065Z,8.17
2022-09-25T18:40:47.746Z,4.10
2022-09-25T18:43:14.262Z,4.00
2022-09-25T18:45:42.312Z,5.57
2022-09-25T18:48:09.070Z,4.77
2022-09-25T18:50:35.715Z,5.40
2022-09-25T18:53:02.198Z,3.30
2022-09-25T18:55:29.660Z,3.00
2022-09-25T18:57:57.230Z,2.60
2022-09-25T19:00:23.675Z,3.30
2022-09-25T19:02:50.265Z,3.20
2022-09-25T19:05:17.407Z,3.63
2022-09-25T19:07:43.890Z,2.73
2022-09-25T19:10:10.879Z,3.00
2022-09-25T19:12:37.363Z,3.30
2022-09-25T19:15:04.887Z,4.10
2022-09-25T19:17:32.115Z,3.57
2022-09-25T19:19:59.016Z,3.50
2022-09-25T19:22:25.496Z,2.53
2022-09-25T19:24:52.760Z,2.80
2022-09-25T19:27:19.703Z,3.20
2022-09-25T19:29:46.803Z,3.90
2022-09-25T19:32:15.292Z,4.00
2022-09-25T19:34:41.874Z,3.67
2022-09-25T19:37:08.684Z,2.27
2022-09-25T19:39:55.551Z,1.90
2022-09-25T19:42:23.415Z,3.17
2022-09-25T19:44:49.960Z,5.90
2022-09-25T19:47:16.658Z,8.93
2022-09-25T19:49:43.089Z,9.77
2022-09-25T19:52:09.606Z,11.00
2022-09-25T19:54:36.259Z,7.90
2022-09-25T19:57:02.808Z,3.00
2022-09-25T19:59:29.332Z,2.97
2022-09-25T20:01:55.985Z,2.80
2022-09-25T20:04:22.501Z,3.10
2022-09-25T20:06:48.964Z,4.67
2022-09-25T20:09:15.770Z,4.10
2022-09-25T20:11:42.633Z,3.50
2022-09-25T20:14:09.130Z,3.70
2022-09-25T20:16:37.469Z,3.90
2022-09-25T20:19:06.360Z,7.23
2022-09-25T20:21:38.147Z,5.47
2022-09-25T20:24:06.873Z,5.60
2022-09-25T20:26:35.873Z,4.50
2022-09-25T20:29:12.190Z,4.30
2022-09-25T20:31:41.089Z,4.50
2022-09-25T20:34:10.800Z,4.30
2022-09-25T20:36:38.973Z,3.70
2022-09-25T20:39:05.773Z,4.17
2022-09-25T20:41:33.314Z,4.40
2022-09-25T20:43:59.789Z,4.73
2022-09-25T20:46:26.934Z,4.27
2022-09-25T20:48:57.480Z,5.20
2022-09-25T20:51:27.429Z,5.27
2022-09-25T20:53:59.526Z,5.57
2022-09-25T20:56:27.707Z,5.80
2022-09-25T20:58:55.671Z,6.10
2022-09-25T21:01:25.603Z,10.20
2022-09-25T21:03:53.267Z,5.17
2022-09-25T21:06:25.781Z,5.27
2022-09-25T21:08:54.116Z,4.33
2022-09-25T21:11:21.868Z,4.10
2022-09-25T21:13:55.513Z,3.83
2022-09-25T21:16:22.620Z,3.53
2022-09-25T21:19:00.940Z,4.67
2022-09-25T21:21:28.864Z,3.50
2022-09-25T21:23:56.959Z,3.90
2022-09-25T21:26:26.305Z,4.10
2022-09-25T21:28:54.813Z,2.80
2022-09-25T21:31:23.793Z,2.50
2022-09-25T21:33:52.847Z,2.77
2022-09-25T21:36:20.240Z,3.17
2022-09-25T21:38:46.994Z,3.07
2022-09-25T21:41:16.537Z,3.57
2022-09-25T21:43:44.088Z,3.03
2022-09-25T21:46:20.054Z,3.10
2022-09-25T21:48:51.628Z,2.90
2022-09-25T21:51:20.151Z,2.73
2022-09-25T21:53:47.091Z,2.80
2022-09-25T21:56:17.115Z,2.90
2022-09-25T21:58:44.283Z,2.70
2022-09-25T22:01:12.003Z,3.10
2022-09-25T22:03:41.289Z,2.27
2022-09-25T22:06:10.845Z,2.97
2022-09-25T22:08:41.002Z,2.77
2022-09-25T22:11:08.514Z,2.37
2022-09-25T22:13:37.817Z,2.83
2022-09-25T22:16:09.796Z,2.63
2022-09-25T22:18:54.118Z,2.43
2022-09-25T22:21:22.770Z,3.30
2022-09-25T22:23:49.326Z,3.27
2022-09-25T22:26:17.298Z,2.70
2022-09-25T22:28:44.242Z,3.00
2022-09-25T22:31:22.908Z,2.87
2022-09-25T22:33:54.475Z,3.03
2022-09-25T22:36:21.492Z,3.00
2022-09-25T22:38:47.963Z,2.40
2022-09-25T22:41:15.398Z,3.07
2022-09-25T22:43:42.566Z,3.37
2022-09-25T22:46:11.132Z,3.10
2022-09-25T22:48:38.544Z,3.20
2022-09-25T22:51:07.882Z,2.70
2022-09-25T22:53:35.538Z,2.80
2022-09-25T22:56:26.215Z,3.07
2022-09-25T22:58:58.346Z,4.20
2022-09-25T23:01:47.621Z,2.37
2022-09-25T23:04:19.895Z,2.97
2022-09-25T23:06:47.033Z,2.90
2022-09-25T23:09:16.539Z,2.60
2022-09-25T23:11:43.430Z,2.87
2022-09-25T23:14:17.378Z,2.90
2022-09-25T23:16:45.128Z,3.30
2022-09-25T23:19:12.425Z,3.50
2022-09-25T23:21:39.168Z,3.57
2022-09-25T23:24:08.576Z,3.40
2022-09-25T23:26:35.025Z,3.90
2022-09-25T23:29:02.188Z,3.20
2022-09-25T23:31:30.337Z,3.77
2022-09-25T23:34:00.869Z,3.87
2022-09-25T23:36:28.915Z,3.93
2022-09-25T23:38:58.194Z,4.83
2022-09-25T23:41:27.456Z,4.23
2022-09-25T23:43:55.263Z,4.20
2022-09-25T23:46:23.940Z,3.63
2022-09-25T23:48:51.323Z,4.00
2022-09-25T23:51:18.846Z,3.30
2022-09-25T23:53:46.315Z,3.53
2022-09-25T23:56:15.418Z,3.93
2022-09-25T23:58:42.635Z,3.33
